OEFPT EDLP-EDDV
Flight info
| Callsign | OEFPT |
|---|---|
| Flight time | 0h 39m |
| Altitude | |
| Route | |
| Aircraft | DA42 |
Departure
| Time | 2026-05-01 09:22 |
|---|---|
| Airport | Paderborn Lippstadt Airport (EDLP) |
Arrival
| Time | 2026-05-01 10:02 |
|---|---|
| Airport | Hannover Airport (EDDV) |
| Time | Latitude | Longitude | Altitude | Speed | Heading |
|---|---|---|---|---|---|
| 2026-05-01 09:14 | 51.60968 | 8.61574 | 700 ft | 0 kts | 133° |
| 2026-05-01 09:17 | 51.60967 | 8.61576 | 700 ft | 1 kts | 105° |
| 2026-05-01 09:17 | 51.60976 | 8.61579 | 697 ft | 0 kts | 321° |
| 2026-05-01 09:17 | 51.60971 | 8.61546 | 700 ft | 4 kts | 243° |
| 2026-05-01 09:18 | 51.60970 | 8.61444 | 704 ft | 11 kts | 244° |
| 2026-05-01 09:18 | 51.60978 | 8.61187 | 705 ft | 13 kts | 281° |
| 2026-05-01 09:19 | 51.61034 | 8.61017 | 706 ft | 0 kts | 342° |
| 2026-05-01 09:21 | 51.61175 | 8.61104 | 701 ft | 19 kts | 27° |
| 2026-05-01 09:21 | 51.61319 | 8.61403 | 704 ft | 63 kts | 55° |
| 2026-05-01 09:21 | 51.62081 | 8.63001 | 1106 ft | 99 kts | 76° |
| 2026-05-01 09:22 | 51.62002 | 8.65194 | 1467 ft | 106 kts | 105° |
| 2026-05-01 09:22 | 51.61859 | 8.67712 | 1402 ft | 120 kts | 100° |
| 2026-05-01 09:23 | 51.61713 | 8.68974 | 1525 ft | 113 kts | 108° |
| 2026-05-01 09:23 | 51.61223 | 8.71326 | 1856 ft | 107 kts | 112° |
| 2026-05-01 09:24 | 51.60661 | 8.73603 | 1983 ft | 114 kts | 112° |
| 2026-05-01 09:24 | 51.60362 | 8.74818 | 1994 ft | 119 kts | 114° |
| 2026-05-01 09:24 | 51.59752 | 8.77383 | 1990 ft | 125 kts | 112° |
| 2026-05-01 09:25 | 51.59128 | 8.79968 | 1988 ft | 123 kts | 114° |
| 2026-05-01 09:25 | 51.58472 | 8.82566 | 1989 ft | 130 kts | 113° |
| 2026-05-01 09:26 | 51.58255 | 8.84005 | 1990 ft | 136 kts | 88° |
| 2026-05-01 09:26 | 51.59239 | 8.86350 | 2450 ft | 118 kts | 54° |
| 2026-05-01 09:26 | 51.59791 | 8.87365 | 2619 ft | 120 kts | 60° |
| 2026-05-01 09:27 | 51.60717 | 8.89555 | 3011 ft | 120 kts | 64° |
| 2026-05-01 09:27 | 51.61210 | 8.90657 | 3120 ft | 123 kts | 56° |
| 2026-05-01 09:27 | 51.61806 | 8.91656 | 3349 ft | 123 kts | 53° |
| 2026-05-01 09:28 | 51.62422 | 8.92596 | 3510 ft | 124 kts | 53° |
| 2026-05-01 09:28 | 51.63065 | 8.93551 | 3678 ft | 130 kts | 47° |
| 2026-05-01 09:28 | 51.63893 | 8.94184 | 3949 ft | 137 kts | 16° |
| 2026-05-01 09:28 | 51.64867 | 8.94216 | 4002 ft | 144 kts | 6° |
| 2026-05-01 09:29 | 51.66977 | 8.94272 | 4007 ft | 156 kts | 4° |
| 2026-05-01 09:29 | 51.68094 | 8.94252 | 3983 ft | 162 kts | 3° |
| 2026-05-01 09:30 | 51.70339 | 8.94140 | 3992 ft | 162 kts | 4° |
| 2026-05-01 09:30 | 51.71470 | 8.94102 | 3990 ft | 161 kts | 4° |
| 2026-05-01 09:30 | 51.73607 | 8.94356 | 4061 ft | 145 kts | 39° |
| 2026-05-01 09:31 | 51.74651 | 8.94735 | 3999 ft | 159 kts | 6° |
| 2026-05-01 09:31 | 51.75764 | 8.94715 | 3994 ft | 160 kts | 4° |
| 2026-05-01 09:31 | 51.78001 | 8.94629 | 3992 ft | 168 kts | 3° |
| 2026-05-01 09:32 | 51.79160 | 8.94605 | 3990 ft | 166 kts | 4° |
| 2026-05-01 09:32 | 51.81458 | 8.94577 | 3995 ft | 167 kts | 2° |
| 2026-05-01 09:32 | 51.82614 | 8.94522 | 3985 ft | 165 kts | 3° |
| 2026-05-01 09:33 | 51.83749 | 8.94487 | 3996 ft | 161 kts | 4° |
| 2026-05-01 09:33 | 51.84873 | 8.94451 | 3994 ft | 161 kts | 4° |
| 2026-05-01 09:33 | 51.87116 | 8.94413 | 3977 ft | 161 kts | 14° |
| 2026-05-01 09:34 | 51.88061 | 8.95201 | 4001 ft | 150 kts | 46° |
| 2026-05-01 09:34 | 51.88873 | 8.96288 | 4001 ft | 153 kts | 47° |
| 2026-05-01 09:34 | 51.90447 | 8.98465 | 4249 ft | 134 kts | 49° |
| 2026-05-01 09:35 | 51.91130 | 8.99373 | 4654 ft | 122 kts | 49° |
| 2026-05-01 09:35 | 51.92466 | 9.01168 | 5002 ft | 127 kts | 49° |
| 2026-05-01 09:35 | 51.93174 | 9.02142 | 5009 ft | 139 kts | 49° |
| 2026-05-01 09:36 | 51.93943 | 9.03209 | 5004 ft | 150 kts | 48° |
| 2026-05-01 09:36 | 51.94733 | 9.04363 | 4991 ft | 155 kts | 49° |
| 2026-05-01 09:36 | 51.95517 | 9.05524 | 4998 ft | 155 kts | 49° |
| 2026-05-01 09:36 | 51.96319 | 9.06691 | 4997 ft | 156 kts | 49° |
| 2026-05-01 09:37 | 51.97166 | 9.07808 | 4995 ft | 158 kts | 44° |
| 2026-05-01 09:37 | 51.98927 | 9.09998 | 4983 ft | 158 kts | 43° |
| 2026-05-01 09:37 | 51.99813 | 9.11060 | 4977 ft | 158 kts | 43° |
| 2026-05-01 09:38 | 52.01567 | 9.13171 | 4964 ft | 157 kts | 44° |
| 2026-05-01 09:38 | 52.02438 | 9.14214 | 4966 ft | 155 kts | 43° |
| 2026-05-01 09:38 | 52.03302 | 9.15259 | 4962 ft | 154 kts | 44° |
| 2026-05-01 09:39 | 52.05019 | 9.17337 | 4965 ft | 154 kts | 44° |
| 2026-05-01 09:39 | 52.05878 | 9.18386 | 4965 ft | 155 kts | 44° |
| 2026-05-01 09:39 | 52.06734 | 9.19428 | 4967 ft | 153 kts | 44° |
| 2026-05-01 09:40 | 52.07590 | 9.20456 | 4972 ft | 159 kts | 42° |
| 2026-05-01 09:40 | 52.09363 | 9.22595 | 4959 ft | 156 kts | 44° |
| 2026-05-01 09:40 | 52.10158 | 9.23552 | 4952 ft | 123 kts | 44° |
| 2026-05-01 09:41 | 52.10770 | 9.24213 | 4942 ft | 88 kts | 43° |
| 2026-05-01 09:41 | 52.12109 | 9.25559 | 4969 ft | 139 kts | 43° |
| 2026-05-01 09:41 | 52.12951 | 9.26493 | 4890 ft | 156 kts | 40° |
| 2026-05-01 09:42 | 52.13893 | 9.27481 | 4679 ft | 169 kts | 38° |
| 2026-05-01 09:42 | 52.14902 | 9.28539 | 4472 ft | 176 kts | 40° |
| 2026-05-01 09:42 | 52.16966 | 9.30823 | 4086 ft | 183 kts | 40° |
| 2026-05-01 09:43 | 52.18904 | 9.32928 | 3972 ft | 146 kts | 40° |
| 2026-05-01 09:43 | 52.19710 | 9.33781 | 3968 ft | 132 kts | 40° |
| 2026-05-01 09:43 | 52.20474 | 9.34568 | 3835 ft | 133 kts | 40° |
| 2026-05-01 09:44 | 52.22132 | 9.36301 | 3349 ft | 141 kts | 40° |
| 2026-05-01 09:44 | 52.22950 | 9.37184 | 3218 ft | 142 kts | 41° |
| 2026-05-01 09:44 | 52.23772 | 9.38075 | 3036 ft | 144 kts | 39° |
| 2026-05-01 09:45 | 52.24614 | 9.38982 | 2896 ft | 144 kts | 40° |
| 2026-05-01 09:45 | 52.26232 | 9.40753 | 2666 ft | 140 kts | 40° |
| 2026-05-01 09:45 | 52.27074 | 9.41614 | 2656 ft | 142 kts | 37° |
| 2026-05-01 09:46 | 52.27886 | 9.42445 | 2525 ft | 138 kts | 39° |
| 2026-05-01 09:46 | 52.28653 | 9.43368 | 2379 ft | 136 kts | 46° |
| 2026-05-01 09:46 | 52.29359 | 9.44423 | 2195 ft | 139 kts | 49° |
| 2026-05-01 09:46 | 52.30018 | 9.45484 | 2180 ft | 126 kts | 56° |
| 2026-05-01 09:47 | 52.30505 | 9.46604 | 2202 ft | 120 kts | 63° |
| 2026-05-01 09:47 | 52.30807 | 9.47383 | 2168 ft | 122 kts | 66° |
| 2026-05-01 09:47 | 52.31216 | 9.48553 | 2211 ft | 120 kts | 67° |
| 2026-05-01 09:47 | 52.31771 | 9.50138 | 2195 ft | 116 kts | 65° |
| 2026-05-01 09:48 | 52.32214 | 9.51227 | 2185 ft | 113 kts | 65° |
| 2026-05-01 09:48 | 52.32467 | 9.51970 | 2178 ft | 107 kts | 68° |
| 2026-05-01 09:48 | 52.32824 | 9.53043 | 2196 ft | 104 kts | 68° |
| 2026-05-01 09:48 | 52.33204 | 9.54097 | 2128 ft | 112 kts | 68° |
| 2026-05-01 09:49 | 52.33571 | 9.55250 | 2087 ft | 113 kts | 73° |
| 2026-05-01 09:49 | 52.33767 | 9.56492 | 2075 ft | 113 kts | 95° |
| 2026-05-01 09:49 | 52.33720 | 9.57709 | 2088 ft | 103 kts | 103° |
| 2026-05-01 09:49 | 52.33605 | 9.58835 | 2079 ft | 102 kts | 105° |
| 2026-05-01 09:50 | 52.33474 | 9.59995 | 2090 ft | 110 kts | 102° |
| 2026-05-01 09:50 | 52.33141 | 9.61047 | 2127 ft | 104 kts | 133° |
| 2026-05-01 09:50 | 52.32654 | 9.61976 | 2079 ft | 108 kts | 132° |
| 2026-05-01 09:50 | 52.32152 | 9.62935 | 2084 ft | 114 kts | 133° |
| 2026-05-01 09:51 | 52.31528 | 9.63735 | 2074 ft | 117 kts | 145° |
| 2026-05-01 09:51 | 52.30780 | 9.64207 | 2083 ft | 121 kts | 179° |
| 2026-05-01 09:51 | 52.30047 | 9.63562 | 2080 ft | 125 kts | 225° |
| 2026-05-01 09:51 | 52.29821 | 9.62145 | 2097 ft | 137 kts | 273° |
| 2026-05-01 09:52 | 52.30016 | 9.60632 | 2105 ft | 140 kts | 281° |
| 2026-05-01 09:52 | 52.30257 | 9.59081 | 2076 ft | 139 kts | 279° |
| 2026-05-01 09:52 | 52.30476 | 9.57601 | 2114 ft | 136 kts | 278° |
| 2026-05-01 09:52 | 52.30686 | 9.56081 | 2097 ft | 136 kts | 278° |
| 2026-05-01 09:53 | 52.30925 | 9.54573 | 2108 ft | 136 kts | 279° |
| 2026-05-01 09:53 | 52.31173 | 9.53035 | 2085 ft | 143 kts | 281° |
| 2026-05-01 09:53 | 52.31480 | 9.51488 | 2083 ft | 139 kts | 284° |
| 2026-05-01 09:53 | 52.31772 | 9.49971 | 2056 ft | 144 kts | 283° |
| 2026-05-01 09:54 | 52.32090 | 9.48404 | 1987 ft | 142 kts | 284° |
| 2026-05-01 09:54 | 52.32424 | 9.46878 | 1980 ft | 145 kts | 285° |
| 2026-05-01 09:54 | 52.32789 | 9.45361 | 1957 ft | 144 kts | 291° |
| 2026-05-01 09:54 | 52.33134 | 9.43857 | 1986 ft | 145 kts | 288° |
| 2026-05-01 09:55 | 52.33625 | 9.42468 | 1985 ft | 142 kts | 317° |
| 2026-05-01 09:55 | 52.34537 | 9.41861 | 1976 ft | 144 kts | 3° |
| 2026-05-01 09:55 | 52.35475 | 9.42270 | 1993 ft | 141 kts | 24° |
| 2026-05-01 09:55 | 52.36379 | 9.42908 | 1977 ft | 141 kts | 35° |
| 2026-05-01 09:56 | 52.37227 | 9.43737 | 1968 ft | 140 kts | 37° |
| 2026-05-01 09:56 | 52.38040 | 9.44577 | 1985 ft | 136 kts | 37° |
| 2026-05-01 09:56 | 52.38828 | 9.45373 | 1977 ft | 130 kts | 36° |
| 2026-05-01 09:56 | 52.39573 | 9.46161 | 1979 ft | 123 kts | 37° |
| 2026-05-01 09:57 | 52.40290 | 9.46920 | 1985 ft | 130 kts | 37° |
| 2026-05-01 09:57 | 52.40987 | 9.47886 | 1962 ft | 130 kts | 53° |
| 2026-05-01 09:57 | 52.41578 | 9.48922 | 1985 ft | 121 kts | 52° |
| 2026-05-01 09:57 | 52.42153 | 9.49948 | 1957 ft | 123 kts | 53° |
| 2026-05-01 09:58 | 52.42692 | 9.50951 | 1995 ft | 114 kts | 54° |
| 2026-05-01 09:58 | 52.43227 | 9.51940 | 1978 ft | 114 kts | 53° |
| 2026-05-01 09:58 | 52.43742 | 9.52906 | 1988 ft | 111 kts | 54° |
| 2026-05-01 09:58 | 52.44265 | 9.53878 | 1977 ft | 117 kts | 52° |
| 2026-05-01 09:59 | 52.44787 | 9.54842 | 1988 ft | 108 kts | 51° |
| 2026-05-01 09:59 | 52.45287 | 9.55752 | 1807 ft | 111 kts | 53° |
| 2026-05-01 09:59 | 52.45774 | 9.56710 | 1817 ft | 108 kts | 57° |
| 2026-05-01 09:59 | 52.46187 | 9.57759 | 1644 ft | 114 kts | 68° |
| 2026-05-01 10:00 | 52.46505 | 9.58910 | 1498 ft | 110 kts | 74° |
| 2026-05-01 10:00 | 52.46780 | 9.60050 | 1312 ft | 107 kts | 76° |
| 2026-05-01 10:00 | 52.46922 | 9.61212 | 1062 ft | 101 kts | 90° |
| 2026-05-01 10:00 | 52.46953 | 9.62357 | 787 ft | 103 kts | 96° |
| 2026-05-01 10:01 | 52.46918 | 9.63480 | 625 ft | 89 kts | 98° |
| 2026-05-01 10:01 | 52.46876 | 9.64416 | 368 ft | 78 kts | 99° |
| 2026-05-01 10:01 | 52.46837 | 9.65333 | 233 ft | 76 kts | 99° |
| 2026-05-01 10:01 | 52.46814 | 9.66083 | 181 ft | 62 kts | 99° |
| 2026-05-01 10:02 | 52.46786 | 9.66685 | 180 ft | 44 kts | 94° |
| 2026-05-01 10:02 | 52.46773 | 9.67192 | 178 ft | 45 kts | 92° |
| 2026-05-01 10:02 | 52.46757 | 9.67701 | 178 ft | 41 kts | 103° |
| 2026-05-01 10:02 | 52.46713 | 9.68055 | 178 ft | 25 kts | 124° |
| 2026-05-01 10:03 | 52.46620 | 9.68192 | 173 ft | 14 kts | 141° |
| 2026-05-01 10:03 | 52.46552 | 9.68278 | 173 ft | 11 kts | 143° |
| 2026-05-01 10:03 | 52.46476 | 9.68372 | 170 ft | 17 kts | 143° |
| 2026-05-01 10:03 | 52.46406 | 9.68461 | 172 ft | 10 kts | 143° |
| 2026-05-01 10:04 | 52.46312 | 9.68580 | 172 ft | 24 kts | 142° |
| 2026-05-01 10:04 | 52.46253 | 9.68784 | 172 ft | 19 kts | 71° |
| 2026-05-01 10:04 | 52.46298 | 9.68966 | 172 ft | 17 kts | 69° |
| 2026-05-01 10:04 | 52.46337 | 9.69129 | 172 ft | 14 kts | 69° |
| 2026-05-01 10:05 | 52.46355 | 9.69269 | 172 ft | 12 kts | 141° |
| 2026-05-01 10:05 | 52.46310 | 9.69317 | 172 ft | 4 kts | 69° |
| 2026-05-01 10:05 | 52.46312 | 9.69327 | 172 ft | 0 kts | 70° |